createdAt,value
2023-04-08T00:01:50.516Z,27.23
2023-04-08T00:04:17.254Z,25.53
2023-04-08T00:06:43.858Z,26.97
2023-04-08T00:09:10.463Z,23.93
2023-04-08T00:11:37.975Z,26.83
2023-04-08T00:14:04.748Z,25.37
2023-04-08T00:16:31.358Z,24.13
2023-04-08T00:18:57.905Z,26.80
2023-04-08T00:21:24.539Z,28.37
2023-04-08T00:23:51.133Z,28.40
2023-04-08T00:26:17.639Z,23.13
2023-04-08T00:28:45.157Z,25.87
2023-04-08T00:31:11.846Z,29.60
2023-04-08T00:33:38.429Z,25.47
2023-04-08T00:36:05.064Z,24.47
2023-04-08T00:38:31.597Z,27.50
2023-04-08T00:40:58.634Z,22.33
2023-04-08T00:43:25.288Z,22.00
2023-04-08T00:45:51.904Z,21.77
2023-04-08T00:48:18.673Z,19.77
2023-04-08T00:50:47.148Z,22.80
2023-04-08T00:53:18.495Z,25.17
2023-04-08T00:55:45.472Z,20.17
2023-04-08T00:58:12.650Z,20.27
2023-04-08T01:00:43.111Z,18.93
2023-04-08T01:03:26.378Z,20.70
2023-04-08T01:06:00.221Z,19.87
2023-04-08T01:08:28.040Z,20.37
2023-04-08T01:10:57.065Z,20.03
2023-04-08T01:13:24.460Z,18.37
2023-04-08T01:15:51.116Z,19.90
2023-04-08T01:18:18.596Z,20.87
2023-04-08T01:20:45.617Z,21.80
2023-04-08T01:23:18.016Z,21.13
2023-04-08T01:25:54.181Z,21.70
2023-04-08T01:28:21.722Z,19.27
2023-04-08T01:30:49.274Z,24.60
2023-04-08T01:33:16.925Z,18.93
2023-04-08T01:35:44.592Z,22.93
2023-04-08T01:38:14.116Z,21.07
2023-04-08T01:40:41.104Z,19.87
2023-04-08T01:43:08.903Z,20.57
2023-04-08T01:45:38.732Z,24.67
2023-04-08T01:48:05.613Z,24.60
2023-04-08T01:50:32.458Z,21.43
2023-04-08T01:53:00.478Z,22.67
2023-04-08T01:55:27.899Z,25.03
2023-04-08T01:57:56.210Z,20.70
2023-04-08T02:00:26.669Z,19.77
2023-04-08T02:02:53.515Z,17.63
2023-04-08T02:05:20.422Z,22.10
2023-04-08T02:07:50.386Z,19.43
2023-04-08T02:10:16.906Z,20.00
2023-04-08T02:12:44.347Z,23.37
2023-04-08T02:15:12.303Z,21.03
2023-04-08T02:17:42.013Z,24.23
2023-04-08T02:20:10.984Z,20.47
2023-04-08T02:22:47.545Z,28.27
2023-04-08T02:25:15.665Z,26.53
2023-04-08T02:27:42.996Z,27.10
2023-04-08T02:30:11.206Z,24.43
2023-04-08T02:32:38.059Z,29.70
2023-04-08T02:35:05.619Z,27.50
2023-04-08T02:37:32.497Z,27.40
2023-04-08T02:39:59.450Z,24.70
2023-04-08T02:42:26.249Z,30.00
2023-04-08T02:44:53.019Z,27.13
2023-04-08T02:47:19.535Z,31.27
2023-04-08T02:49:46.378Z,25.70
2023-04-08T02:52:12.974Z,26.97
2023-04-08T02:54:39.569Z,27.70
2023-04-08T02:57:06.148Z,25.27
2023-04-08T02:59:32.701Z,25.80
2023-04-08T03:01:59.289Z,26.40
2023-04-08T03:04:25.981Z,26.37
2023-04-08T03:06:52.513Z,26.93
2023-04-08T03:09:19.012Z,36.97
2023-04-08T03:11:45.643Z,34.80
2023-04-08T03:14:12.131Z,33.50
2023-04-08T03:16:38.805Z,26.97
2023-04-08T03:19:05.476Z,29.23
2023-04-08T03:21:32.446Z,34.83
2023-04-08T03:23:58.981Z,33.73
2023-04-08T03:26:27.180Z,38.13
2023-04-08T03:28:53.785Z,33.23
2023-04-08T03:31:21.386Z,38.17
2023-04-08T03:33:48.032Z,39.40
2023-04-08T03:36:14.555Z,42.97
2023-04-08T03:38:41.082Z,39.50
2023-04-08T03:41:07.642Z,34.37
2023-04-08T03:43:36.172Z,44.60
2023-04-08T03:46:04.115Z,43.60
2023-04-08T03:48:31.205Z,48.70
2023-04-08T03:50:57.809Z,45.60
2023-04-08T03:53:24.453Z,42.90
2023-04-08T03:55:51.188Z,46.97
2023-04-08T03:58:17.670Z,44.80
2023-04-08T04:00:44.190Z,44.37
2023-04-08T04:03:13.137Z,44.27
2023-04-08T04:05:40.317Z,45.30
2023-04-08T04:08:07.336Z,41.50
2023-04-08T04:10:33.893Z,50.63
2023-04-08T04:13:00.476Z,53.97
2023-04-08T04:15:27.207Z,46.90
2023-04-08T04:17:53.811Z,51.53
2023-04-08T04:20:21.762Z,43.97
2023-04-08T04:22:48.335Z,44.57
2023-04-08T04:25:14.904Z,47.77
2023-04-08T04:27:41.418Z,43.77
2023-04-08T04:30:09.470Z,50.10
2023-04-08T04:32:36.054Z,41.63
2023-04-08T04:35:02.726Z,46.23
2023-04-08T04:37:29.221Z,44.60
2023-04-08T04:39:56.018Z,48.40
2023-04-08T04:42:22.640Z,40.20
2023-04-08T04:44:49.315Z,41.23
2023-04-08T04:47:16.476Z,43.50
2023-04-08T04:49:43.092Z,48.27
2023-04-08T04:52:09.705Z,47.30
2023-04-08T04:54:36.344Z,43.33
2023-04-08T04:57:02.840Z,46.80
2023-04-08T04:59:29.401Z,42.83
2023-04-08T05:01:57.859Z,38.27
2023-04-08T05:04:24.771Z,38.40
2023-04-08T05:06:51.324Z,46.53
2023-04-08T05:09:17.918Z,52.33
2023-04-08T05:11:44.498Z,49.90
2023-04-08T05:14:11.181Z,45.27
2023-04-08T05:16:38.828Z,45.10
2023-04-08T05:19:05.403Z,40.90
2023-04-08T05:21:32.694Z,45.07
2023-04-08T05:23:59.398Z,44.07
2023-04-08T05:26:26.371Z,45.10
2023-04-08T05:28:53.035Z,36.20
2023-04-08T05:31:20.094Z,43.60
2023-04-08T05:33:46.995Z,40.67
2023-04-08T05:36:13.884Z,40.37
2023-04-08T05:38:40.980Z,43.70
2023-04-08T05:41:07.476Z,39.30
2023-04-08T05:43:34.306Z,37.23
2023-04-08T05:46:00.896Z,38.73
2023-04-08T05:48:27.439Z,35.27
2023-04-08T05:50:53.950Z,33.47
2023-04-08T05:53:20.440Z,35.40
2023-04-08T05:55:47.028Z,37.13
2023-04-08T05:58:13.544Z,36.17
2023-04-08T06:00:40.056Z,34.67
2023-04-08T06:03:07.072Z,38.10
2023-04-08T06:05:33.715Z,36.10
2023-04-08T06:08:00.598Z,35.10
2023-04-08T06:10:27.098Z,36.10
2023-04-08T06:12:53.658Z,37.77
2023-04-08T06:15:21.192Z,34.43
2023-04-08T06:17:47.798Z,35.13
2023-04-08T06:20:14.307Z,36.80
2023-04-08T06:22:40.833Z,36.23
2023-04-08T06:25:07.524Z,34.93
2023-04-08T06:27:34.031Z,32.23
2023-04-08T06:30:00.836Z,36.97
2023-04-08T06:32:27.369Z,32.57
2023-04-08T06:34:53.953Z,31.97
2023-04-08T06:37:20.884Z,31.80
2023-04-08T06:39:47.381Z,31.90
2023-04-08T06:42:13.927Z,31.33
2023-04-08T06:44:54.603Z,29.27
2023-04-08T06:47:21.211Z,33.13
2023-04-08T06:49:48.324Z,29.97
2023-04-08T06:52:15.278Z,30.63
2023-04-08T06:54:41.902Z,30.97
2023-04-08T06:57:08.401Z,32.97
2023-04-08T06:59:35.320Z,27.53
2023-04-08T07:02:01.946Z,30.50
2023-04-08T07:04:28.512Z,32.70
2023-04-08T07:06:55.082Z,27.70
2023-04-08T07:09:21.627Z,28.80
2023-04-08T07:11:48.375Z,26.80
2023-04-08T07:14:14.849Z,27.97
2023-04-08T07:16:41.421Z,28.67
2023-04-08T07:19:08.165Z,29.67
2023-04-08T07:21:34.679Z,28.43
2023-04-08T07:24:01.241Z,27.43
2023-04-08T07:26:28.699Z,27.23
2023-04-08T07:28:55.335Z,26.63
2023-04-08T07:31:21.869Z,30.80
2023-04-08T07:33:48.455Z,32.33
2023-04-08T07:36:15.396Z,35.90
2023-04-08T07:38:42.097Z,35.80
2023-04-08T07:41:08.640Z,32.33
2023-04-08T07:43:37.162Z,32.90
2023-04-08T07:46:04.756Z,32.13
2023-04-08T07:48:31.878Z,30.03
2023-04-08T07:51:08.960Z,27.57
2023-04-08T07:53:37.959Z,25.20
2023-04-08T07:56:11.122Z,26.37
2023-04-08T07:58:37.774Z,26.10
2023-04-08T08:01:04.380Z,23.53
2023-04-08T08:03:33.750Z,24.27
2023-04-08T08:06:00.766Z,22.93
2023-04-08T08:08:27.272Z,21.87
2023-04-08T08:10:53.806Z,23.67
2023-04-08T08:13:22.190Z,22.87
2023-04-08T08:15:52.589Z,26.10
2023-04-08T08:18:19.452Z,24.33
2023-04-08T08:20:46.119Z,23.00
2023-04-08T08:23:12.627Z,24.60
2023-04-08T08:25:40.325Z,23.20
2023-04-08T08:28:07.074Z,21.77
2023-04-08T08:30:34.184Z,22.07
2023-04-08T08:33:01.093Z,23.23
2023-04-08T08:35:27.691Z,25.20
2023-04-08T08:37:54.199Z,22.67
2023-04-08T08:40:20.724Z,24.77
2023-04-08T08:42:51.630Z,31.53
2023-04-08T08:45:19.487Z,25.70
2023-04-08T08:47:46.241Z,24.53
2023-04-08T08:50:12.849Z,28.67
2023-04-08T08:52:39.343Z,24.17
2023-04-08T08:55:21.822Z,22.50
2023-04-08T08:57:52.625Z,29.43
2023-04-08T09:00:19.196Z,28.47
2023-04-08T09:02:45.864Z,20.87
2023-04-08T09:05:12.655Z,20.57
2023-04-08T09:07:42.357Z,20.10
2023-04-08T09:10:09.188Z,17.57
2023-04-08T09:12:35.957Z,17.03
2023-04-08T09:15:05.510Z,16.73
2023-04-08T09:17:36.076Z,17.60
2023-04-08T09:20:12.699Z,13.93
2023-04-08T09:22:58.053Z,13.03
2023-04-08T09:25:25.423Z,12.33
2023-04-08T09:27:53.088Z,14.10
2023-04-08T09:30:20.510Z,16.00
2023-04-08T09:32:47.972Z,11.77
2023-04-08T09:35:16.655Z,10.23
2023-04-08T09:37:43.383Z,11.37
2023-04-08T09:40:10.503Z,11.37
2023-04-08T09:42:40.059Z,10.50
2023-04-08T09:45:10.037Z,13.50
2023-04-08T09:47:42.750Z,10.93
2023-04-08T09:50:09.691Z,25.27
2023-04-08T09:52:47.026Z,10.97
2023-04-08T09:55:14.319Z,13.37
2023-04-08T09:57:52.850Z,11.87
2023-04-08T10:00:19.823Z,12.60
2023-04-08T10:02:52.558Z,11.53
2023-04-08T10:05:19.372Z,12.57
2023-04-08T10:07:45.926Z,12.63
2023-04-08T10:10:12.618Z,15.60
2023-04-08T10:12:39.594Z,11.87
2023-04-08T10:15:32.238Z,10.87
2023-04-08T10:18:01.536Z,11.00
2023-04-08T10:20:34.119Z,10.07
2023-04-08T10:23:01.423Z,12.07
2023-04-08T10:25:29.407Z,12.03
2023-04-08T10:27:56.050Z,11.23
2023-04-08T10:30:28.651Z,11.73
2023-04-08T10:32:56.813Z,11.10
2023-04-08T10:35:30.397Z,11.43
2023-04-08T10:38:00.353Z,12.73
2023-04-08T10:40:27.001Z,11.47
2023-04-08T10:42:57.101Z,17.23
2023-04-08T10:45:24.028Z,14.20
2023-04-08T10:47:50.933Z,10.73
2023-04-08T10:50:18.623Z,10.67
2023-04-08T10:52:48.515Z,11.50
2023-04-08T10:55:15.107Z,11.77
2023-04-08T10:57:41.677Z,12.10
2023-04-08T11:00:11.673Z,13.70
2023-04-08T11:02:38.504Z,15.07
2023-04-08T11:05:05.262Z,13.83
2023-04-08T11:07:31.844Z,13.87
2023-04-08T11:10:02.680Z,14.53
2023-04-08T11:12:29.941Z,15.90
2023-04-08T11:14:57.482Z,14.90
2023-04-08T11:17:24.155Z,15.63
2023-04-08T11:19:50.776Z,15.70
2023-04-08T11:22:17.304Z,15.80
2023-04-08T11:24:45.200Z,21.07
2023-04-08T11:27:11.807Z,20.10
2023-04-08T11:29:38.427Z,22.60
2023-04-08T11:32:05.008Z,21.70
2023-04-08T11:34:31.891Z,19.23
2023-04-08T11:36:59.148Z,17.77
2023-04-08T11:39:26.473Z,18.40
2023-04-08T11:41:53.332Z,22.27
2023-04-08T11:44:19.858Z,21.40
2023-04-08T11:46:55.389Z,22.00
2023-04-08T11:49:22.103Z,23.13
2023-04-08T11:51:56.343Z,22.97
2023-04-08T11:54:27.121Z,19.70
2023-04-08T11:56:53.771Z,19.83
2023-04-08T11:59:20.335Z,20.60
2023-04-08T12:01:46.937Z,21.03
2023-04-08T12:04:13.779Z,18.93
2023-04-08T12:06:43.524Z,19.10
2023-04-08T12:09:10.082Z,19.90
2023-04-08T12:11:36.751Z,22.07
2023-04-08T12:14:03.301Z,21.20
2023-04-08T12:16:29.864Z,19.07
2023-04-08T12:18:56.477Z,21.33
2023-04-08T12:21:23.063Z,17.63
2023-04-08T12:23:49.716Z,21.33
2023-04-08T12:26:16.451Z,19.90
2023-04-08T12:28:42.969Z,20.40
2023-04-08T12:31:09.517Z,20.60
2023-04-08T12:33:36.244Z,22.13
2023-04-08T12:36:02.836Z,20.90
2023-04-08T12:38:29.439Z,23.63
2023-04-08T12:40:56.097Z,22.70
2023-04-08T12:43:23.701Z,24.10
2023-04-08T12:45:50.548Z,21.17
2023-04-08T12:48:17.061Z,21.77
2023-04-08T12:50:43.831Z,19.30
2023-04-08T12:53:10.709Z,20.73
2023-04-08T12:55:37.322Z,18.83
2023-04-08T12:58:03.930Z,18.60
2023-04-08T13:00:30.585Z,21.40
2023-04-08T13:02:57.247Z,17.77
2023-04-08T13:05:39.628Z,23.20
2023-04-08T13:08:09.672Z,18.77
2023-04-08T13:10:36.228Z,17.03
2023-04-08T13:13:02.805Z,17.67
2023-04-08T13:15:29.324Z,18.03
2023-04-08T13:17:56.117Z,18.83
2023-04-08T13:20:25.782Z,21.50
2023-04-08T13:22:55.681Z,22.13
2023-04-08T13:25:22.273Z,26.10
2023-04-08T13:27:48.845Z,26.00
2023-04-08T13:30:15.554Z,24.63
2023-04-08T13:32:42.142Z,25.87
2023-04-08T13:35:08.813Z,27.20
2023-04-08T13:37:35.879Z,24.83
2023-04-08T13:40:02.645Z,26.83
2023-04-08T13:42:31.468Z,23.07
2023-04-08T13:44:57.996Z,22.13
2023-04-08T13:47:24.521Z,23.80
2023-04-08T13:49:51.793Z,23.10
2023-04-08T13:52:18.370Z,22.97
2023-04-08T13:54:44.915Z,26.30
2023-04-08T13:57:11.563Z,23.87
2023-04-08T13:59:38.167Z,24.67
2023-04-08T14:02:05.184Z,23.23
2023-04-08T14:04:31.857Z,25.00
2023-04-08T14:06:58.380Z,23.07
2023-04-08T14:09:25.064Z,23.30
2023-04-08T14:11:51.557Z,21.83
2023-04-08T14:14:18.094Z,20.93
2023-04-08T14:16:45.048Z,24.27
2023-04-08T14:19:11.630Z,21.57
2023-04-08T14:21:38.210Z,19.83
2023-04-08T14:24:05.269Z,20.90
2023-04-08T14:26:35.753Z,19.97
2023-04-08T14:29:06.026Z,20.30
2023-04-08T14:31:33.119Z,19.00
2023-04-08T14:34:00.593Z,19.90
2023-04-08T14:36:28.038Z,18.57
2023-04-08T14:38:54.986Z,19.33
2023-04-08T14:41:21.874Z,18.53
2023-04-08T14:43:48.709Z,18.90
2023-04-08T14:46:15.581Z,20.67
2023-04-08T14:48:42.152Z,19.13
2023-04-08T14:51:08.704Z,19.90
2023-04-08T14:53:35.386Z,18.53
2023-04-08T14:56:01.996Z,21.60
2023-04-08T14:58:28.511Z,19.47
2023-04-08T15:00:55.732Z,27.03
2023-04-08T15:03:22.785Z,19.80
2023-04-08T15:05:58.788Z,19.57
2023-04-08T15:08:25.600Z,23.87
2023-04-08T15:10:52.165Z,18.53
2023-04-08T15:13:18.735Z,21.10
2023-04-08T15:15:45.496Z,21.40
2023-04-08T15:18:12.124Z,19.73
2023-04-08T15:20:38.776Z,18.00
2023-04-08T15:23:06.076Z,18.53
2023-04-08T15:25:33.024Z,15.90
2023-04-08T15:27:59.545Z,18.07
2023-04-08T15:30:26.451Z,30.03
2023-04-08T15:32:53.625Z,20.80
2023-04-08T15:35:21.063Z,22.00
2023-04-08T15:37:47.541Z,19.83
2023-04-08T15:40:14.089Z,18.20
2023-04-08T15:42:40.580Z,17.67
2023-04-08T15:45:07.922Z,20.90
2023-04-08T15:47:35.274Z,17.53
2023-04-08T15:50:01.917Z,19.27
2023-04-08T15:52:28.504Z,20.63
2023-04-08T15:54:55.050Z,20.97
2023-04-08T15:57:26.711Z,21.27
2023-04-08T15:59:53.607Z,21.40
2023-04-08T16:02:20.535Z,19.27
2023-04-08T16:04:47.246Z,16.63
2023-04-08T16:07:13.816Z,19.47
2023-04-08T16:09:40.297Z,18.40
2023-04-08T16:12:06.832Z,17.27
2023-04-08T16:14:33.997Z,16.23
2023-04-08T16:17:00.575Z,16.00
2023-04-08T16:19:27.342Z,15.80
2023-04-08T16:21:53.875Z,17.73
2023-04-08T16:24:20.827Z,18.80
2023-04-08T16:26:47.426Z,18.13
2023-04-08T16:29:14.183Z,16.37
2023-04-08T16:31:40.984Z,16.37
2023-04-08T16:34:08.303Z,15.87
2023-04-08T16:36:35.763Z,24.97
2023-04-08T16:39:02.345Z,22.93
2023-04-08T16:41:28.895Z,28.53
2023-04-08T16:43:55.500Z,19.77
2023-04-08T16:46:22.239Z,17.40
2023-04-08T16:48:48.765Z,16.57
2023-04-08T16:51:15.457Z,15.40
2023-04-08T16:53:42.587Z,17.23
2023-04-08T16:56:16.177Z,16.67
2023-04-08T16:58:43.071Z,19.80
2023-04-08T17:01:10.577Z,19.40
2023-04-08T17:03:37.887Z,18.63
2023-04-08T17:06:14.542Z,18.10
2023-04-08T17:08:44.292Z,16.83
2023-04-08T17:11:11.804Z,15.40
2023-04-08T17:13:39.161Z,16.63
2023-04-08T17:16:06.559Z,39.67
2023-04-08T17:18:33.217Z,33.07
2023-04-08T17:20:59.790Z,22.47
2023-04-08T17:23:27.091Z,19.53
2023-04-08T17:25:54.131Z,17.60
2023-04-08T17:28:21.318Z,17.77
2023-04-08T17:30:47.794Z,17.37
2023-04-08T17:33:14.802Z,17.07
2023-04-08T17:35:41.308Z,17.37
2023-04-08T17:38:08.069Z,19.80
2023-04-08T17:40:34.650Z,20.17
2023-04-08T17:43:01.742Z,19.63
2023-04-08T17:45:28.239Z,19.73
2023-04-08T17:47:54.915Z,19.47
2023-04-08T17:50:21.584Z,20.50
2023-04-08T17:52:48.087Z,30.03
2023-04-08T17:55:14.887Z,31.03
2023-04-08T17:57:41.891Z,19.67
2023-04-08T18:00:08.619Z,18.80
2023-04-08T18:02:36.937Z,16.23
2023-04-08T18:05:04.177Z,20.80
2023-04-08T18:07:30.791Z,22.73
2023-04-08T18:09:57.299Z,19.27
2023-04-08T18:12:23.893Z,19.93
2023-04-08T18:14:50.498Z,17.93
2023-04-08T18:17:17.154Z,18.07
2023-04-08T18:19:43.656Z,18.40
2023-04-08T18:22:10.173Z,18.57
2023-04-08T18:24:37.309Z,19.93
2023-04-08T18:27:05.116Z,18.17
2023-04-08T18:29:31.735Z,18.97
2023-04-08T18:31:58.368Z,16.43
2023-04-08T18:34:25.357Z,16.83
2023-04-08T18:36:52.075Z,16.43
2023-04-08T18:39:18.866Z,16.57
2023-04-08T18:41:45.876Z,16.50
2023-04-08T18:44:12.915Z,18.87
2023-04-08T18:46:39.474Z,31.60
2023-04-08T18:49:06.204Z,47.13
2023-04-08T18:51:33.470Z,65.33
2023-04-08T18:54:00.048Z,52.20
2023-04-08T18:56:26.714Z,38.27
2023-04-08T18:58:54.678Z,44.10
2023-04-08T19:01:21.583Z,43.43
2023-04-08T19:03:48.277Z,43.23
2023-04-08T19:06:17.324Z,41.77
2023-04-08T19:08:43.831Z,42.30
2023-04-08T19:11:10.366Z,34.50
2023-04-08T19:13:37.056Z,31.20
2023-04-08T19:16:03.689Z,32.03
2023-04-08T19:18:30.469Z,27.83
2023-04-08T19:20:57.055Z,34.23
2023-04-08T19:23:23.532Z,30.40
2023-04-08T19:25:50.378Z,26.10
2023-04-08T19:28:16.853Z,25.50
2023-04-08T19:30:43.428Z,21.40
2023-04-08T19:33:10.096Z,18.63
2023-04-08T19:35:36.921Z,19.50
2023-04-08T19:38:03.821Z,19.80
2023-04-08T19:40:30.633Z,18.20
2023-04-08T19:42:57.193Z,19.13
2023-04-08T19:45:23.703Z,18.93
2023-04-08T19:47:50.314Z,21.53
2023-04-08T19:50:16.879Z,26.50
2023-04-08T19:52:43.401Z,20.77
2023-04-08T19:55:12.719Z,19.93
2023-04-08T19:57:39.354Z,18.60
2023-04-08T20:00:06.153Z,19.17
2023-04-08T20:02:33.202Z,23.57
2023-04-08T20:04:59.867Z,21.73
2023-04-08T20:07:26.396Z,21.47
2023-04-08T20:09:52.916Z,20.13
2023-04-08T20:12:19.457Z,19.80
2023-04-08T20:14:47.223Z,18.90
2023-04-08T20:17:15.413Z,24.10
2023-04-08T20:19:42.045Z,19.77
2023-04-08T20:22:08.563Z,20.83
2023-04-08T20:24:35.084Z,21.00
2023-04-08T20:27:01.631Z,22.57
2023-04-08T20:29:28.633Z,21.60
2023-04-08T20:31:55.241Z,23.80
2023-04-08T20:34:21.820Z,19.97
2023-04-08T20:36:48.420Z,18.87
2023-04-08T20:39:14.898Z,20.33
2023-04-08T20:41:42.445Z,20.97
2023-04-08T20:44:10.613Z,25.00
2023-04-08T20:46:37.850Z,24.97
2023-04-08T20:49:05.074Z,27.77
2023-04-08T20:51:33.722Z,26.07
2023-04-08T20:54:00.405Z,28.93
2023-04-08T20:56:27.313Z,31.43
2023-04-08T20:58:54.270Z,31.67
2023-04-08T21:01:21.947Z,27.50
2023-04-08T21:03:49.164Z,34.07
2023-04-08T21:06:22.069Z,31.60
2023-04-08T21:08:49.437Z,29.57
2023-04-08T21:11:16.416Z,27.97
2023-04-08T21:13:43.194Z,30.93
2023-04-08T21:16:09.805Z,27.27
2023-04-08T21:18:38.943Z,28.67
2023-04-08T21:21:05.501Z,27.57
2023-04-08T21:23:32.171Z,27.23
2023-04-08T21:25:58.665Z,30.73
2023-04-08T21:28:25.266Z,34.57
2023-04-08T21:30:52.025Z,35.93
2023-04-08T21:33:18.808Z,39.87
2023-04-08T21:35:45.477Z,42.20
2023-04-08T21:38:12.691Z,42.37
2023-04-08T21:40:39.234Z,40.83
2023-04-08T21:43:05.765Z,36.77
2023-04-08T21:45:32.575Z,37.20
2023-04-08T21:47:59.302Z,33.50
2023-04-08T21:50:25.852Z,33.93
2023-04-08T21:52:52.390Z,32.83
2023-04-08T21:55:18.899Z,38.97
2023-04-08T21:57:45.411Z,37.67
2023-04-08T22:00:13.669Z,40.93
2023-04-08T22:02:43.847Z,39.93
2023-04-08T22:05:10.849Z,51.90
2023-04-08T22:07:37.855Z,58.97
2023-04-08T22:10:04.522Z,86.63
2023-04-08T22:12:31.057Z,73.90
2023-04-08T22:14:57.667Z,66.97
2023-04-08T22:17:24.364Z,54.73
2023-04-08T22:19:51.076Z,52.80
2023-04-08T22:22:17.636Z,54.53
2023-04-08T22:24:44.201Z,51.57
2023-04-08T22:27:10.944Z,67.83
2023-04-08T22:29:37.453Z,94.33
2023-04-08T22:32:04.024Z,100.07
2023-04-08T22:34:30.782Z,57.83
2023-04-08T22:36:57.335Z,48.13
2023-04-08T22:39:26.115Z,41.17
2023-04-08T22:41:52.684Z,40.27
2023-04-08T22:44:19.209Z,37.43
2023-04-08T22:46:45.997Z,40.20
2023-04-08T22:49:12.509Z,38.23
2023-04-08T22:51:39.110Z,37.37
2023-04-08T22:54:05.682Z,39.20
2023-04-08T22:56:32.302Z,33.40
2023-04-08T22:58:58.854Z,33.83
2023-04-08T23:01:25.435Z,32.10
2023-04-08T23:03:52.021Z,34.13
2023-04-08T23:06:18.611Z,35.73
2023-04-08T23:08:45.238Z,35.43
2023-04-08T23:11:11.784Z,32.63
2023-04-08T23:13:38.371Z,30.17
2023-04-08T23:16:04.998Z,33.87
2023-04-08T23:18:31.591Z,32.60
2023-04-08T23:20:58.578Z,33.03
2023-04-08T23:23:25.416Z,34.83
2023-04-08T23:25:54.314Z,36.83
2023-04-08T23:28:21.964Z,35.73
2023-04-08T23:30:48.617Z,33.40
2023-04-08T23:33:15.352Z,31.47
2023-04-08T23:35:42.241Z,37.67
2023-04-08T23:38:08.834Z,33.10
2023-04-08T23:40:35.465Z,34.87
2023-04-08T23:43:01.969Z,33.03
2023-04-08T23:45:28.486Z,35.30
2023-04-08T23:47:55.024Z,38.80
2023-04-08T23:50:23.067Z,32.67
2023-04-08T23:52:49.686Z,31.57
2023-04-08T23:55:16.218Z,33.80
2023-04-08T23:57:45.756Z,39.67
